createdAt,value
2022-08-14T00:04:57.011Z,18.92
2022-08-14T00:10:49.996Z,19.21
2022-08-14T00:15:43.610Z,19.35
2022-08-14T00:20:46.473Z,19.25
2022-08-14T00:25:58.738Z,19.29
2022-08-14T00:31:08.156Z,19.36
2022-08-14T00:36:35.326Z,19.24
2022-08-14T00:41:33.761Z,18.92
2022-08-14T00:46:37.762Z,18.91
2022-08-14T00:51:41.014Z,18.99
2022-08-14T00:56:43.120Z,19.00
2022-08-14T01:01:46.005Z,19.13
2022-08-14T01:06:55.297Z,19.10
2022-08-14T01:12:03.374Z,18.90
2022-08-14T01:17:05.373Z,18.52
2022-08-14T01:22:12.513Z,18.41
2022-08-14T01:27:18.745Z,18.51
2022-08-14T01:32:22.758Z,18.55
2022-08-14T01:37:25.721Z,18.58
2022-08-14T01:42:30.972Z,18.57
2022-08-14T01:47:37.265Z,18.30
2022-08-14T01:52:58.760Z,17.78
2022-08-14T01:58:19.493Z,17.77
2022-08-14T02:03:30.835Z,17.70
2022-08-14T02:08:35.643Z,17.20
2022-08-14T02:13:38.136Z,17.67
2022-08-14T02:18:40.081Z,17.79
2022-08-14T02:23:43.066Z,17.62
2022-08-14T02:28:57.438Z,17.76
2022-08-14T02:34:04.161Z,17.82
2022-08-14T02:39:16.405Z,17.83
2022-08-14T02:44:29.615Z,17.75
2022-08-14T02:49:34.164Z,17.54
2022-08-14T02:54:36.350Z,17.42
2022-08-14T02:59:39.412Z,17.37
2022-08-14T03:04:45.012Z,17.45
2022-08-14T03:10:25.866Z,17.46
2022-08-14T03:15:16.153Z,17.16
2022-08-14T03:20:18.824Z,17.08
2022-08-14T03:25:24.029Z,17.21
2022-08-14T03:30:39.206Z,17.18
2022-08-14T03:36:05.190Z,17.08
2022-08-14T03:41:04.202Z,16.97
2022-08-14T03:46:10.032Z,17.11
2022-08-14T03:51:28.845Z,17.10
2022-08-14T03:56:31.177Z,17.01
2022-08-14T04:01:39.090Z,16.68
2022-08-14T04:06:48.570Z,16.60
2022-08-14T04:11:50.893Z,16.75
2022-08-14T04:16:52.661Z,16.86
2022-08-14T04:22:02.282Z,16.77
2022-08-14T04:27:09.668Z,16.31
2022-08-14T04:32:57.335Z,16.27
2022-08-14T04:37:53.742Z,16.56
2022-08-14T04:43:17.313Z,16.86
2022-08-14T04:48:39.112Z,17.06
2022-08-14T04:53:44.756Z,18.24
2022-08-14T04:58:48.163Z,20.32
2022-08-14T05:03:50.477Z,20.84
2022-08-14T05:08:59.634Z,21.16
2022-08-14T05:14:42.826Z,21.68
2022-08-14T05:19:29.201Z,21.23
2022-08-14T05:24:31.552Z,20.59
2022-08-14T05:29:34.848Z,19.95
2022-08-14T05:34:37.075Z,19.76
2022-08-14T05:39:39.920Z,19.71
2022-08-14T05:44:42.662Z,19.65
2022-08-14T05:49:48.443Z,19.56
2022-08-14T05:54:50.287Z,19.62
2022-08-14T05:59:51.967Z,19.70
2022-08-14T06:04:54.787Z,19.89
2022-08-14T06:10:04.014Z,20.05
2022-08-14T06:15:08.238Z,20.07
2022-08-14T06:20:11.322Z,20.09
2022-08-14T06:25:16.078Z,20.24
2022-08-14T06:30:24.180Z,20.53
2022-08-14T06:35:44.193Z,20.69
2022-08-14T06:40:50.802Z,20.77
2022-08-14T06:45:53.902Z,20.83
2022-08-14T06:50:58.013Z,20.96
2022-08-14T06:56:02.268Z,21.04
2022-08-14T07:01:27.804Z,21.14
2022-08-14T07:06:46.473Z,21.24
2022-08-14T07:11:49.800Z,21.26
2022-08-14T07:16:51.491Z,21.68
2022-08-14T07:21:53.219Z,21.95
2022-08-14T07:26:54.907Z,22.16
2022-08-14T07:31:56.754Z,22.37
2022-08-14T07:37:00.961Z,22.65
2022-08-14T07:42:03.242Z,23.56
2022-08-14T07:47:05.317Z,24.69
2022-08-14T07:52:08.228Z,25.99
2022-08-14T07:57:12.235Z,26.23
2022-08-14T08:02:18.040Z,26.56
2022-08-14T08:07:21.936Z,27.46
2022-08-14T08:12:29.632Z,28.06
2022-08-14T08:17:34.930Z,28.49
2022-08-14T08:22:43.493Z,28.23
2022-08-14T08:27:55.863Z,28.66
2022-08-14T08:33:01.210Z,28.86
2022-08-14T08:39:14.494Z,29.01
2022-08-14T08:43:46.075Z,28.83
2022-08-14T08:54:05.851Z,29.81
2022-08-14T08:59:16.320Z,29.95
2022-08-14T09:04:19.940Z,30.46
2022-08-14T09:09:30.424Z,30.65
2022-08-14T09:14:36.543Z,31.11
2022-08-14T09:19:42.514Z,31.13
2022-08-14T09:24:47.557Z,31.00
2022-08-14T09:29:54.281Z,30.92
2022-08-14T09:35:30.106Z,31.16
2022-08-14T09:40:53.737Z,31.28
2022-08-14T09:46:02.511Z,30.91
2022-08-14T09:56:10.130Z,31.17
2022-08-14T10:01:17.970Z,31.27
2022-08-14T10:06:28.358Z,31.24
2022-08-14T10:11:36.552Z,31.67
2022-08-14T10:16:44.142Z,31.78
2022-08-14T10:23:15.453Z,31.60
2022-08-14T10:27:27.025Z,31.50
2022-08-14T10:32:40.004Z,31.71
2022-08-14T10:37:53.025Z,31.89
2022-08-14T10:42:56.793Z,31.71
2022-08-14T10:48:07.570Z,31.64
2022-08-14T10:53:14.114Z,31.61
2022-08-14T10:58:32.987Z,31.39
2022-08-14T11:03:55.755Z,31.39
2022-08-14T11:08:59.096Z,31.33
2022-08-14T11:14:00.961Z,31.20
2022-08-14T11:19:08.453Z,31.10
2022-08-14T11:24:50.680Z,31.25
2022-08-14T11:29:37.062Z,31.51
2022-08-14T11:34:38.921Z,31.20
2022-08-14T11:39:41.782Z,31.41
2022-08-14T11:44:47.263Z,31.57
2022-08-14T11:49:51.956Z,31.39
2022-08-14T11:54:58.541Z,31.39
2022-08-14T12:00:06.032Z,31.32
2022-08-14T12:05:10.485Z,31.82
2022-08-14T12:10:25.392Z,32.05
2022-08-14T12:15:36.231Z,31.58
2022-08-14T12:20:45.580Z,31.87
2022-08-14T12:26:01.565Z,31.83
2022-08-14T12:31:20.625Z,31.99
2022-08-14T12:36:22.782Z,32.10
2022-08-14T12:41:27.851Z,32.57
2022-08-14T12:46:31.908Z,32.67
2022-08-14T12:51:33.677Z,32.33
2022-08-14T12:56:35.353Z,32.29
2022-08-14T13:01:56.806Z,32.16
2022-08-14T13:07:07.393Z,31.66
2022-08-14T13:12:34.933Z,31.14
2022-08-14T13:17:38.893Z,31.03
2022-08-14T13:22:44.473Z,31.16
2022-08-14T13:27:49.260Z,31.37
2022-08-14T13:32:53.343Z,31.78
2022-08-14T13:37:55.404Z,32.12
2022-08-14T13:42:57.661Z,32.29
2022-08-14T13:47:59.392Z,32.31
2022-08-14T13:53:03.763Z,32.47
2022-08-14T13:58:06.707Z,32.71
2022-08-14T14:03:30.142Z,32.67
2022-08-14T14:08:43.440Z,32.22
2022-08-14T14:13:48.886Z,31.98
2022-08-14T14:18:56.052Z,32.14
2022-08-14T14:23:58.133Z,32.35
2022-08-14T14:29:04.514Z,32.44
2022-08-14T14:34:29.462Z,32.50
2022-08-14T14:39:37.628Z,32.55
2022-08-14T14:44:40.721Z,32.71
2022-08-14T14:49:54.587Z,32.87
2022-08-14T14:54:58.567Z,32.88
2022-08-14T15:00:03.326Z,32.87
2022-08-14T15:05:08.277Z,32.50
2022-08-14T15:10:27.805Z,32.20
2022-08-14T15:15:37.492Z,32.14
2022-08-14T15:20:39.659Z,32.23
2022-08-14T15:25:43.908Z,32.31
2022-08-14T15:30:57.994Z,32.28
2022-08-14T15:36:01.557Z,31.90
2022-08-14T15:41:08.632Z,31.96
2022-08-14T15:46:10.621Z,31.63
2022-08-14T15:51:32.812Z,31.63
2022-08-14T15:56:43.348Z,31.81
2022-08-14T16:01:54.197Z,31.81
2022-08-14T16:06:56.518Z,31.77
2022-08-14T16:11:58.263Z,31.98
2022-08-14T16:17:03.593Z,32.18
2022-08-14T16:23:10.553Z,32.20
2022-08-14T16:27:37.858Z,32.10
2022-08-14T16:32:55.093Z,31.85
2022-08-14T16:37:59.080Z,31.80
2022-08-14T16:43:26.083Z,31.76
2022-08-14T16:48:55.141Z,31.82
2022-08-14T16:53:52.347Z,31.82
2022-08-14T16:59:30.300Z,31.49
2022-08-14T17:04:35.835Z,31.48
2022-08-14T17:09:54.802Z,31.20
2022-08-14T17:15:10.084Z,31.10
2022-08-14T17:20:53.188Z,30.97
2022-08-14T17:25:39.192Z,30.83
2022-08-14T17:30:49.109Z,30.71
2022-08-14T17:35:58.778Z,30.52
2022-08-14T17:41:22.085Z,30.30
2022-08-14T17:46:50.146Z,30.14
2022-08-14T17:52:16.781Z,29.96
2022-08-14T17:57:23.419Z,29.80
2022-08-14T18:02:30.952Z,29.66
2022-08-14T18:08:00.121Z,29.46
2022-08-14T18:12:57.107Z,29.27
2022-08-14T18:18:01.760Z,29.06
2022-08-14T18:23:06.444Z,28.81
2022-08-14T18:28:18.083Z,28.56
2022-08-14T18:33:35.512Z,28.36
2022-08-14T18:38:55.234Z,28.11
2022-08-14T18:44:01.919Z,27.87
2022-08-14T18:49:16.500Z,27.59
2022-08-14T18:54:30.023Z,27.37
2022-08-14T18:59:40.196Z,27.15
2022-08-14T19:04:43.323Z,26.97
2022-08-14T19:10:21.015Z,26.78
2022-08-14T19:15:35.060Z,26.62
2022-08-14T19:20:52.900Z,26.46
2022-08-14T19:26:03.403Z,26.21
2022-08-14T19:31:37.061Z,25.69
2022-08-14T19:37:05.531Z,25.49
2022-08-14T19:42:10.601Z,25.40
2022-08-14T19:47:15.222Z,25.41
2022-08-14T19:52:20.942Z,25.30
2022-08-14T19:57:31.214Z,25.24
2022-08-14T20:02:37.565Z,25.19
2022-08-14T20:07:59.309Z,25.04
2022-08-14T20:13:09.551Z,24.92
2022-08-14T20:18:22.203Z,24.82
2022-08-14T20:23:37.918Z,24.66
2022-08-14T20:28:51.536Z,24.17
2022-08-14T20:34:24.850Z,24.02
2022-08-14T20:39:34.380Z,23.67
2022-08-14T20:45:03.907Z,23.71
2022-08-14T20:50:22.405Z,23.75
2022-08-14T20:55:32.340Z,23.82
2022-08-14T21:00:52.505Z,23.74
2022-08-14T21:05:57.271Z,23.72
2022-08-14T21:10:59.930Z,23.59
2022-08-14T21:16:03.813Z,23.39
2022-08-14T21:21:09.305Z,23.25
2022-08-14T21:26:12.288Z,23.23
2022-08-14T21:31:15.276Z,23.21
2022-08-14T21:36:21.676Z,23.17
2022-08-14T21:41:42.442Z,23.08
2022-08-14T21:46:56.572Z,22.99
2022-08-14T21:52:51.932Z,22.93
2022-08-14T21:58:03.863Z,22.90
2022-08-14T22:02:55.373Z,22.80
2022-08-14T22:07:57.844Z,22.74
2022-08-14T22:13:01.195Z,22.70
2022-08-14T22:18:06.275Z,22.64
2022-08-14T22:23:11.092Z,22.54
2022-08-14T22:28:19.803Z,22.14
2022-08-14T22:33:21.439Z,21.96
2022-08-14T22:38:36.186Z,21.62
2022-08-14T22:43:41.855Z,21.42
2022-08-14T22:48:45.402Z,21.73
2022-08-14T22:53:49.363Z,21.83
2022-08-14T22:58:55.944Z,21.80
2022-08-14T23:03:59.950Z,21.66
2022-08-14T23:09:35.814Z,21.64
2022-08-14T23:14:29.510Z,21.68
2022-08-14T23:19:33.806Z,21.72
2022-08-14T23:24:41.473Z,21.68
2022-08-14T23:29:44.445Z,21.61
2022-08-14T23:34:48.119Z,21.39
2022-08-14T23:39:53.166Z,21.45
2022-08-14T23:44:55.719Z,21.65
2022-08-14T23:50:01.242Z,21.80
2022-08-14T23:55:06.568Z,21.80
